createdAt,value
2023-02-19T00:01:31.181Z,94450.31
2023-02-19T00:04:00.373Z,94418.13
2023-02-19T00:06:32.522Z,94426.94
2023-02-19T00:08:59.463Z,94405.31
2023-02-19T00:11:28.883Z,94390.50
2023-02-19T00:14:00.076Z,94432.16
2023-02-19T00:16:40.392Z,94370.91
2023-02-19T00:19:09.181Z,94345.81
2023-02-19T00:21:35.614Z,94389.59
2023-02-19T00:24:04.593Z,94387.44
2023-02-19T00:26:31.654Z,94416.88
2023-02-19T00:28:58.590Z,94374.38
2023-02-19T00:31:28.395Z,94395.88
2023-02-19T00:33:58.325Z,94411.66
2023-02-19T00:36:37.488Z,94414.16
2023-02-19T00:39:06.034Z,94367.16
2023-02-19T00:41:32.866Z,94379.25
2023-02-19T00:44:00.394Z,94433.41
2023-02-19T00:46:29.281Z,94368.94
2023-02-19T00:48:57.258Z,94412.06
2023-02-19T00:51:26.945Z,94401.09
2023-02-19T00:53:53.761Z,94366.75
2023-02-19T00:56:23.642Z,94420.41
2023-02-19T00:58:50.622Z,94377.63
2023-02-19T01:01:17.855Z,94396.56
2023-02-19T01:03:44.459Z,94415.19
2023-02-19T01:06:13.356Z,94410.72
2023-02-19T01:08:40.075Z,94388.31
2023-02-19T01:11:09.079Z,94403.00
2023-02-19T01:13:35.998Z,94337.66
2023-02-19T01:16:08.047Z,94366.38
2023-02-19T01:18:35.453Z,94345.28
2023-02-19T01:21:23.814Z,94394.31
2023-02-19T01:23:51.757Z,94378.31
2023-02-19T01:26:20.965Z,94391.63
2023-02-19T01:28:48.275Z,94389.31
2023-02-19T01:31:18.199Z,94357.75
2023-02-19T01:33:50.697Z,94333.84
2023-02-19T01:36:17.340Z,94335.13
2023-02-19T01:38:44.313Z,94355.06
2023-02-19T01:41:24.526Z,94388.94
2023-02-19T01:44:18.121Z,94347.91
2023-02-19T01:46:46.446Z,94378.78
2023-02-19T01:49:21.006Z,94364.41
2023-02-19T01:52:12.957Z,94372.72
2023-02-19T01:54:42.745Z,94374.56
2023-02-19T01:57:15.800Z,94270.06
2023-02-19T01:59:43.160Z,94358.16
2023-02-19T02:02:09.800Z,94316.69
2023-02-19T02:04:36.384Z,94328.34
2023-02-19T02:07:26.242Z,94285.56
2023-02-19T02:10:12.527Z,94290.50
2023-02-19T02:12:38.940Z,94332.72
2023-02-19T02:15:05.969Z,94278.41
2023-02-19T02:17:39.643Z,94296.09
2023-02-19T02:20:15.219Z,94328.44
2023-02-19T02:22:59.664Z,94321.75
2023-02-19T02:25:47.387Z,94317.81
2023-02-19T02:28:48.080Z,94317.13
2023-02-19T02:31:28.415Z,94323.38
2023-02-19T02:34:19.092Z,94289.19
2023-02-19T02:36:49.763Z,94312.63
2023-02-19T02:39:21.783Z,94285.50
2023-02-19T02:42:15.500Z,94311.47
2023-02-19T02:45:03.210Z,94315.06
2023-02-19T02:47:42.304Z,94274.00
2023-02-19T02:50:20.349Z,94243.38
2023-02-19T02:53:09.971Z,94233.13
2023-02-19T02:55:40.813Z,94279.69
2023-02-19T02:58:08.153Z,94263.09
2023-02-19T03:00:56.959Z,94215.66
2023-02-19T03:03:25.479Z,94206.44
2023-02-19T03:05:56.479Z,94226.78
2023-02-19T03:08:28.116Z,94179.50
2023-02-19T03:11:28.007Z,94246.56
2023-02-19T03:14:39.142Z,94199.25
2023-02-19T03:17:39.528Z,94236.84
2023-02-19T03:20:10.945Z,94263.91
2023-02-19T03:22:38.796Z,94197.88
2023-02-19T03:25:29.165Z,94130.72
2023-02-19T03:27:59.775Z,94101.63
2023-02-19T03:30:31.757Z,94118.88
2023-02-19T03:33:02.283Z,94154.47
2023-02-19T03:35:34.903Z,94130.69
2023-02-19T03:38:20.135Z,94205.09
2023-02-19T03:41:03.537Z,94144.66
2023-02-19T03:43:39.173Z,94244.28
2023-02-19T03:46:25.623Z,94213.88
2023-02-19T03:48:58.764Z,94152.00
2023-02-19T03:51:42.665Z,94161.69
2023-02-19T03:54:23.447Z,94130.09
2023-02-19T03:56:54.173Z,94214.88
2023-02-19T03:59:43.476Z,94272.59
2023-02-19T04:02:26.095Z,94261.94
2023-02-19T04:05:18.307Z,94318.19
2023-02-19T04:07:48.888Z,94268.78
2023-02-19T04:10:17.734Z,94271.09
2023-02-19T04:12:50.508Z,94315.06
2023-02-19T04:15:22.131Z,94193.31
2023-02-19T04:18:07.387Z,94216.31
2023-02-19T04:20:41.004Z,94239.56
2023-02-19T04:23:08.063Z,94222.00
2023-02-19T04:25:38.197Z,94306.34
2023-02-19T04:28:04.840Z,94238.25
2023-02-19T04:30:31.531Z,94307.97
2023-02-19T04:32:58.007Z,94311.25
2023-02-19T04:35:24.384Z,94288.19
2023-02-19T04:37:50.839Z,94270.53
2023-02-19T04:40:17.320Z,94254.13
2023-02-19T04:42:43.689Z,94247.38
2023-02-19T04:45:10.132Z,94237.63
2023-02-19T04:47:36.517Z,94250.09
2023-02-19T04:50:03.221Z,94248.47
2023-02-19T04:52:29.645Z,94208.41
2023-02-19T04:54:56.043Z,94265.81
2023-02-19T04:57:22.435Z,94245.78
2023-02-19T04:59:48.821Z,94248.03
2023-02-19T05:02:15.200Z,94227.88
2023-02-19T05:04:41.693Z,94248.03
2023-02-19T05:07:08.459Z,94281.09
2023-02-19T05:09:34.874Z,94256.41
2023-02-19T05:12:01.377Z,94313.53
2023-02-19T05:14:27.749Z,94313.22
2023-02-19T05:16:54.140Z,94328.75
2023-02-19T05:19:20.668Z,94295.38
2023-02-19T05:21:47.029Z,94290.50
2023-02-19T05:24:13.409Z,94326.19
2023-02-19T05:26:39.853Z,94329.13
2023-02-19T05:29:06.340Z,94284.84
2023-02-19T05:31:33.848Z,94288.25
2023-02-19T05:34:00.487Z,94330.59
2023-02-19T05:36:27.019Z,94288.91
2023-02-19T05:38:55.306Z,94320.69
2023-02-19T05:41:27.327Z,94298.31
2023-02-19T05:43:54.964Z,94293.44
2023-02-19T05:46:26.708Z,94305.44
2023-02-19T05:48:53.760Z,94342.41
2023-02-19T05:51:22.132Z,94297.03
2023-02-19T05:53:49.145Z,94269.44
2023-02-19T05:56:26.755Z,94264.91
2023-02-19T05:58:54.652Z,94360.63
2023-02-19T06:01:23.991Z,94326.50
2023-02-19T06:03:50.440Z,94326.31
2023-02-19T06:06:18.833Z,94361.94
2023-02-19T06:08:45.910Z,94382.25
2023-02-19T06:11:12.694Z,94353.84
2023-02-19T06:13:39.301Z,94343.47
2023-02-19T06:16:07.498Z,94293.47
2023-02-19T06:18:34.229Z,94335.34
2023-02-19T06:21:05.610Z,94391.47
2023-02-19T06:23:32.158Z,94334.38
2023-02-19T06:26:10.449Z,94398.31
2023-02-19T06:28:37.983Z,94403.19
2023-02-19T06:31:05.899Z,94410.00
2023-02-19T06:33:33.489Z,94377.53
2023-02-19T06:36:04.342Z,94393.13
2023-02-19T06:38:31.431Z,94371.00
2023-02-19T06:41:05.544Z,94374.31
2023-02-19T06:43:33.277Z,94420.72
2023-02-19T06:46:04.941Z,94425.78
2023-02-19T06:48:32.626Z,94399.28
2023-02-19T06:50:59.525Z,94387.97
2023-02-19T06:53:26.125Z,94398.59
2023-02-19T06:56:07.391Z,94371.84
2023-02-19T06:58:34.470Z,94426.00
2023-02-19T07:01:01.400Z,94422.78
2023-02-19T07:03:27.931Z,94385.09
2023-02-19T07:05:54.367Z,94434.69
2023-02-19T07:08:21.021Z,94442.81
2023-02-19T07:10:56.407Z,94397.69
2023-02-19T07:13:24.193Z,94445.69
2023-02-19T07:15:52.162Z,94434.69
2023-02-19T07:18:18.893Z,94372.06
2023-02-19T07:20:45.440Z,94404.81
2023-02-19T07:23:11.819Z,94438.25
2023-02-19T07:25:38.822Z,94445.31
2023-02-19T07:28:06.165Z,94385.63
2023-02-19T07:30:38.496Z,94412.25
2023-02-19T07:33:04.942Z,94416.16
2023-02-19T07:35:31.325Z,94397.88
2023-02-19T07:37:57.742Z,94448.66
2023-02-19T07:40:30.480Z,94414.56
2023-02-19T07:42:59.451Z,94438.59
2023-02-19T07:45:25.901Z,94449.31
2023-02-19T07:47:54.421Z,94460.97
2023-02-19T07:50:20.820Z,94481.81
2023-02-19T07:52:50.300Z,94465.91
2023-02-19T07:55:25.936Z,94474.34
2023-02-19T07:57:53.322Z,94450.16
2023-02-19T08:00:27.800Z,94478.56
2023-02-19T08:03:00.095Z,94501.63
2023-02-19T08:05:41.119Z,94500.00
2023-02-19T08:08:10.477Z,94478.59
2023-02-19T08:11:10.455Z,94522.75
2023-02-19T08:13:38.227Z,94468.19
2023-02-19T08:16:16.876Z,94410.69
2023-02-19T08:18:54.059Z,94470.13
2023-02-19T08:21:27.864Z,94487.97
2023-02-19T08:24:06.558Z,94466.19
2023-02-19T08:26:41.278Z,94439.19
2023-02-19T08:29:07.810Z,94474.97
2023-02-19T08:31:35.072Z,94490.59
2023-02-19T08:34:01.596Z,94450.13
2023-02-19T08:36:36.077Z,94469.81
2023-02-19T08:39:02.538Z,94530.38
2023-02-19T08:41:30.906Z,94479.22
2023-02-19T08:43:57.283Z,94479.34
2023-02-19T08:46:34.598Z,94526.63
2023-02-19T08:49:16.425Z,94499.81
2023-02-19T08:51:49.055Z,94490.88
2023-02-19T08:54:22.536Z,94537.97
2023-02-19T08:56:56.227Z,94471.53
2023-02-19T08:59:23.738Z,94504.75
2023-02-19T09:01:50.854Z,94544.09
2023-02-19T09:04:17.301Z,94559.94
2023-02-19T09:06:43.721Z,94500.16
2023-02-19T09:09:11.169Z,94526.50
2023-02-19T09:11:55.902Z,94515.53
2023-02-19T09:14:33.779Z,94468.75
2023-02-19T09:17:01.454Z,94423.63
2023-02-19T09:19:28.857Z,94519.44
2023-02-19T09:21:56.047Z,94248.69
2023-02-19T09:24:22.942Z,94562.31
2023-02-19T09:26:50.496Z,94556.69
2023-02-19T09:29:16.902Z,94540.81
2023-02-19T09:31:43.529Z,94551.16
2023-02-19T09:34:11.690Z,94545.84
2023-02-19T09:36:39.454Z,94570.78
2023-02-19T09:39:07.750Z,94526.19
2023-02-19T09:41:37.846Z,94514.81
2023-02-19T09:44:09.754Z,94551.84
2023-02-19T09:46:45.777Z,94555.13
2023-02-19T09:49:19.715Z,94576.78
2023-02-19T09:52:10.138Z,94552.88
2023-02-19T09:54:37.988Z,94579.47
2023-02-19T09:57:21.520Z,94584.47
2023-02-19T09:59:51.645Z,94599.03
2023-02-19T10:02:30.804Z,94583.16
2023-02-19T10:04:58.001Z,94616.34
2023-02-19T10:07:33.079Z,94616.34
2023-02-19T10:10:25.670Z,94623.88
2023-02-19T10:12:56.059Z,94621.25
2023-02-19T10:15:30.239Z,94580.28
2023-02-19T10:17:56.835Z,94595.75
2023-02-19T10:20:27.802Z,94575.72
2023-02-19T10:23:03.420Z,94621.09
2023-02-19T10:25:31.726Z,94597.47
2023-02-19T10:28:00.206Z,94521.16
2023-02-19T10:30:35.498Z,94583.78
2023-02-19T10:33:08.645Z,94620.88
2023-02-19T10:35:37.904Z,94584.78
2023-02-19T10:38:06.806Z,94582.16
2023-02-19T10:40:33.848Z,94603.63
2023-02-19T10:43:04.603Z,94621.50
2023-02-19T10:45:45.209Z,94615.28
2023-02-19T10:48:24.775Z,94589.00
2023-02-19T10:50:58.144Z,94628.09
2023-02-19T10:53:37.882Z,94625.50
2023-02-19T10:56:12.799Z,94610.22
2023-02-19T10:58:42.320Z,94608.09
2023-02-19T11:01:27.811Z,94565.50
2023-02-19T11:04:17.577Z,94599.72
2023-02-19T11:06:46.646Z,94589.69
2023-02-19T11:09:28.203Z,94572.69
2023-02-19T11:11:56.222Z,94589.66
2023-02-19T11:14:24.635Z,94592.41
2023-02-19T11:16:57.513Z,94556.00
2023-02-19T11:19:39.601Z,94567.84
2023-02-19T11:22:30.511Z,94595.56
2023-02-19T11:25:04.743Z,94585.00
2023-02-19T11:27:32.078Z,94569.69
2023-02-19T11:30:37.777Z,94560.75
2023-02-19T11:33:17.410Z,94570.22
2023-02-19T11:35:45.040Z,94564.88
2023-02-19T11:38:13.829Z,94530.28
2023-02-19T11:41:22.318Z,94574.69
2023-02-19T11:44:03.592Z,94561.06
2023-02-19T11:46:57.305Z,94565.00
2023-02-19T11:49:54.533Z,94577.09
2023-02-19T11:53:10.967Z,94566.06
2023-02-19T11:56:21.729Z,94565.03
2023-02-19T11:59:07.382Z,94565.31
2023-02-19T12:01:47.067Z,94563.06
2023-02-19T12:05:03.704Z,94562.50
2023-02-19T12:08:14.253Z,94566.44
2023-02-19T12:11:11.465Z,94559.00
2023-02-19T12:14:03.845Z,94560.94
2023-02-19T12:16:46.304Z,94553.81
2023-02-19T12:19:34.778Z,94550.63
2023-02-19T12:22:30.563Z,94554.00
2023-02-19T12:24:59.987Z,94551.75
2023-02-19T12:27:43.061Z,94541.75
2023-02-19T12:30:12.783Z,94550.28
